RKSS/GMP METAR and TAF weather

Enter ICAO airport designator
Station Type Date Time Source
RKSS METAR 2018/12/15 04:00 UTC NOAA

RKSS 150400Z 03002KT 8000 NSC 01/M14 Q1033 NOSIG


Station Type Date Time Source
RKSS Decoded METAR 2018/12/15 04:00 UTC NOAA

Seoul / Kimp'O International Airport, Korea, South (RKSS) 37-33N 126-48E 18M
Dec 14, 2018 - 11:00 PM EST / 2018.12.15 0400 UTC
Wind: from the NNE (030 degrees) at 2 MPH (2 KT):0
Visibility: 4 mile(s):0
Temperature: 33 F (1 C)
Dew Point: 6 F (-14 C)
Relative Humidity: 31%
Pressure (altimeter): 30.50 in. Hg (1033 hPa)
ob: RKSS 150400Z 03002KT 8000 NSC 01/M14 Q1033 NOSIG
cycle: 4

Station Type Date Time Source
RKSS TAF 2018/12/14 18:09 UTC NOAA

TAF RKSS 141700Z 1418/1524 32006KT CAVOK TNM08/1421Z TX02/1505Z TNM02/1522Z
BECMG 1520/1521 16006KT 9999 FEW010 BKN025 OVC100
BECMG 1523/1524 24006KT 4200 -SN


Example: see airport list